createdAt,value
2023-05-20T00:00:41.030Z,13.42
2023-05-20T00:01:42.992Z,13.35
2023-05-20T00:02:40.023Z,13.30
2023-05-20T00:03:40.274Z,13.27
2023-05-20T00:04:39.990Z,13.22
2023-05-20T00:05:40.532Z,13.16
2023-05-20T00:06:40.126Z,13.13
2023-05-20T00:07:39.613Z,13.13
2023-05-20T00:08:40.445Z,13.10
2023-05-20T00:09:40.037Z,13.09
2023-05-20T00:10:39.980Z,13.10
2023-05-20T00:11:39.708Z,13.08
2023-05-20T00:12:54.257Z,13.07
2023-05-20T00:13:39.775Z,13.06
2023-05-20T00:14:40.365Z,13.00
2023-05-20T00:15:40.027Z,12.93
2023-05-20T00:16:40.010Z,12.92
2023-05-20T00:17:39.521Z,12.90
2023-05-20T00:18:39.901Z,12.90
2023-05-20T00:19:40.723Z,12.93
2023-05-20T00:20:40.146Z,12.90
2023-05-20T00:21:39.690Z,12.89
2023-05-20T00:22:40.012Z,12.87
2023-05-20T00:23:39.486Z,12.86
2023-05-20T00:24:40.228Z,12.86
2023-05-20T00:25:40.378Z,12.84
2023-05-20T00:26:40.034Z,12.81
2023-05-20T00:27:39.677Z,12.78
2023-05-20T00:28:40.163Z,12.75
2023-05-20T00:29:39.862Z,12.70
2023-05-20T00:30:40.690Z,12.70
2023-05-20T00:31:40.297Z,12.69
2023-05-20T00:32:40.080Z,12.68
2023-05-20T00:33:39.701Z,12.61
2023-05-20T00:34:40.102Z,12.58
2023-05-20T00:35:40.081Z,12.53
2023-05-20T00:36:39.919Z,12.51
2023-05-20T00:37:40.322Z,12.49
2023-05-20T00:38:39.611Z,12.47
2023-05-20T00:39:39.825Z,12.43
2023-05-20T00:40:40.529Z,12.42
2023-05-20T00:41:40.648Z,12.40
2023-05-20T00:42:40.256Z,12.39
2023-05-20T00:43:39.776Z,12.38
2023-05-20T00:44:40.008Z,12.39
2023-05-20T00:45:39.825Z,12.40
2023-05-20T00:46:40.756Z,12.40
2023-05-20T00:47:41.143Z,12.34
2023-05-20T00:48:40.625Z,12.26
2023-05-20T00:49:40.363Z,12.20
2023-05-20T00:50:40.081Z,12.13
2023-05-20T00:51:40.010Z,12.12
2023-05-20T00:52:39.692Z,12.14
2023-05-20T00:53:40.265Z,12.10
2023-05-20T00:54:39.672Z,12.09
2023-05-20T00:55:40.084Z,12.08
2023-05-20T00:56:40.109Z,12.09
2023-05-20T00:57:39.577Z,12.13
2023-05-20T00:58:39.909Z,12.16
2023-05-20T00:59:41.039Z,12.18
2023-05-20T01:01:12.702Z,12.17
2023-05-20T01:01:45.367Z,12.13
2023-05-20T01:02:40.132Z,12.11
2023-05-20T01:03:40.419Z,12.14
2023-05-20T01:04:39.721Z,12.14
2023-05-20T01:05:42.282Z,12.12
2023-05-20T01:06:39.787Z,12.10
2023-05-20T01:07:39.813Z,12.12
2023-05-20T01:08:39.990Z,12.09
2023-05-20T01:09:39.494Z,12.03
2023-05-20T01:10:40.134Z,11.97
2023-05-20T01:11:39.653Z,11.90
2023-05-20T01:12:40.062Z,11.82
2023-05-20T01:13:39.779Z,11.77
2023-05-20T01:14:39.957Z,11.72
2023-05-20T01:15:40.369Z,11.70
2023-05-20T01:16:40.191Z,11.72
2023-05-20T01:17:39.864Z,11.69
2023-05-20T01:18:39.423Z,11.69
2023-05-20T01:19:39.979Z,11.75
2023-05-20T01:20:39.856Z,11.77
2023-05-20T01:21:40.339Z,11.78
2023-05-20T01:22:39.745Z,11.78
2023-05-20T01:23:40.173Z,11.73
2023-05-20T01:24:39.599Z,11.68
2023-05-20T01:25:39.989Z,11.70
2023-05-20T01:26:39.396Z,11.66
2023-05-20T01:27:39.891Z,11.66
2023-05-20T01:28:40.342Z,11.57
2023-05-20T01:29:39.972Z,11.53
2023-05-20T01:30:40.523Z,11.52
2023-05-20T01:31:39.913Z,11.53
2023-05-20T01:32:40.404Z,11.55
2023-05-20T01:33:39.677Z,11.62
2023-05-20T01:34:39.896Z,11.64
2023-05-20T01:35:40.480Z,11.60
2023-05-20T01:36:39.930Z,11.55
2023-05-20T01:37:40.267Z,11.46
2023-05-20T01:38:39.600Z,11.47
2023-05-20T01:39:40.226Z,11.49
2023-05-20T01:40:39.869Z,11.49
2023-05-20T01:41:40.210Z,11.43
2023-05-20T01:42:39.767Z,11.38
2023-05-20T01:43:40.356Z,11.35
2023-05-20T01:44:40.054Z,11.37
2023-05-20T01:45:39.875Z,11.38
2023-05-20T01:46:40.763Z,11.37
2023-05-20T01:47:40.628Z,11.35
2023-05-20T01:48:40.092Z,11.37
2023-05-20T01:49:39.811Z,11.36
2023-05-20T01:50:40.507Z,11.39
2023-05-20T01:51:39.801Z,11.37
2023-05-20T01:52:40.454Z,11.37
2023-05-20T01:53:40.027Z,11.30
2023-05-20T01:54:39.499Z,11.25
2023-05-20T01:55:39.979Z,11.23
2023-05-20T01:56:39.549Z,11.18
2023-05-20T01:57:39.823Z,11.13
2023-05-20T01:58:40.184Z,11.10
2023-05-20T01:59:40.097Z,11.11
2023-05-20T02:00:41.124Z,11.08
2023-05-20T02:01:40.115Z,11.03
2023-05-20T02:02:40.419Z,11.01
2023-05-20T02:03:40.034Z,10.97
2023-05-20T02:04:40.059Z,10.96
2023-05-20T02:05:39.947Z,10.96
2023-05-20T02:06:39.519Z,10.97
2023-05-20T02:07:39.897Z,11.01
2023-05-20T02:08:40.508Z,11.04
2023-05-20T02:09:40.045Z,11.06
2023-05-20T02:10:39.600Z,11.06
2023-05-20T02:11:39.841Z,11.08
2023-05-20T02:12:40.095Z,11.07
2023-05-20T02:13:39.518Z,11.09
2023-05-20T02:14:39.961Z,11.08
2023-05-20T02:15:39.834Z,11.07
2023-05-20T02:16:40.646Z,11.02
2023-05-20T02:17:40.192Z,10.98
2023-05-20T02:18:39.967Z,11.01
2023-05-20T02:19:40.909Z,11.03
2023-05-20T02:20:40.518Z,11.03
2023-05-20T02:21:40.057Z,11.01
2023-05-20T02:22:39.557Z,10.97
2023-05-20T02:23:39.990Z,10.96
2023-05-20T02:24:39.846Z,10.97
2023-05-20T02:25:40.439Z,10.97
2023-05-20T02:26:40.120Z,10.93
2023-05-20T02:27:39.755Z,10.92
2023-05-20T02:28:40.226Z,10.90
2023-05-20T02:29:39.747Z,10.90
2023-05-20T02:30:40.655Z,10.92
2023-05-20T02:31:40.188Z,10.93
2023-05-20T02:32:39.832Z,10.91
2023-05-20T02:33:40.520Z,10.90
2023-05-20T02:34:40.533Z,10.89
2023-05-20T02:35:40.260Z,10.88
2023-05-20T02:36:39.848Z,10.83
2023-05-20T02:37:40.250Z,10.77
2023-05-20T02:38:40.092Z,10.75
2023-05-20T02:39:40.592Z,10.72
2023-05-20T02:40:40.946Z,10.76
2023-05-20T02:41:40.567Z,10.76
2023-05-20T02:42:40.197Z,10.75
2023-05-20T02:43:39.569Z,10.78
2023-05-20T02:44:40.080Z,10.82
2023-05-20T02:45:40.183Z,10.84
2023-05-20T02:46:40.210Z,10.85
2023-05-20T02:47:39.919Z,10.83
2023-05-20T02:48:40.461Z,10.82
2023-05-20T02:49:40.185Z,10.81
2023-05-20T02:50:39.857Z,10.80
2023-05-20T02:51:40.497Z,10.78
2023-05-20T02:52:40.069Z,10.68
2023-05-20T02:53:39.792Z,10.63
2023-05-20T02:54:40.391Z,10.58
2023-05-20T02:55:40.135Z,10.60
2023-05-20T02:56:39.905Z,10.60
2023-05-20T02:57:40.354Z,10.61
2023-05-20T02:58:40.003Z,10.60
2023-05-20T02:59:39.705Z,10.55
2023-05-20T03:00:41.574Z,10.56
2023-05-20T03:01:40.277Z,10.52
2023-05-20T03:02:39.899Z,10.46
2023-05-20T03:03:40.126Z,10.44
2023-05-20T03:04:39.831Z,10.44
2023-05-20T03:05:40.784Z,10.47
2023-05-20T03:06:40.333Z,10.46
2023-05-20T03:07:48.035Z,10.46
2023-05-20T03:08:39.889Z,10.46
2023-05-20T03:09:40.549Z,10.47
2023-05-20T03:10:40.065Z,10.51
2023-05-20T03:11:39.753Z,10.50
2023-05-20T03:12:39.979Z,10.52
2023-05-20T03:13:39.918Z,10.55
2023-05-20T03:14:40.909Z,10.54
2023-05-20T03:15:40.427Z,10.55
2023-05-20T03:16:40.037Z,10.55
2023-05-20T03:17:39.574Z,10.54
2023-05-20T03:18:40.037Z,10.55
2023-05-20T03:19:39.545Z,10.52
2023-05-20T03:20:40.139Z,10.48
2023-05-20T03:21:39.749Z,10.48
2023-05-20T03:22:40.043Z,10.49
2023-05-20T03:23:39.303Z,10.46
2023-05-20T03:24:39.584Z,10.41
2023-05-20T03:25:40.107Z,10.39
2023-05-20T03:26:39.563Z,10.36
2023-05-20T03:27:39.914Z,10.32
2023-05-20T03:28:40.089Z,10.28
2023-05-20T03:29:39.582Z,10.24
2023-05-20T03:30:40.393Z,10.19
2023-05-20T03:31:39.829Z,10.21
2023-05-20T03:32:40.301Z,10.21
2023-05-20T03:33:39.974Z,10.21
2023-05-20T03:34:40.378Z,10.20
2023-05-20T03:35:39.866Z,10.19
2023-05-20T03:36:40.049Z,10.20
2023-05-20T03:37:39.722Z,10.21
2023-05-20T03:38:39.961Z,10.24
2023-05-20T03:39:39.725Z,10.25
2023-05-20T03:40:40.629Z,10.26
2023-05-20T03:41:40.110Z,10.23
2023-05-20T03:42:39.608Z,10.19
2023-05-20T03:43:39.948Z,10.13
2023-05-20T03:44:40.511Z,10.06
2023-05-20T03:46:12.439Z,10.03
2023-05-20T03:46:45.425Z,10.03
2023-05-20T03:47:40.343Z,10.06
2023-05-20T03:48:39.919Z,10.08
2023-05-20T03:49:40.302Z,10.04
2023-05-20T03:50:39.950Z,10.05
2023-05-20T03:51:39.827Z,10.08
2023-05-20T03:52:40.679Z,10.11
2023-05-20T03:53:40.537Z,10.11
2023-05-20T03:54:40.350Z,10.14
2023-05-20T03:55:40.195Z,10.18
2023-05-20T03:56:40.012Z,10.18
2023-05-20T03:57:39.842Z,10.13
2023-05-20T03:58:40.472Z,10.14
2023-05-20T03:59:40.220Z,10.14
2023-05-20T04:00:41.268Z,10.12
2023-05-20T04:01:40.019Z,10.11
2023-05-20T04:02:39.945Z,10.13
2023-05-20T04:03:40.043Z,10.14
2023-05-20T04:04:40.306Z,10.14
2023-05-20T04:05:40.466Z,10.17
2023-05-20T04:06:40.439Z,10.17
2023-05-20T04:07:39.898Z,10.16
2023-05-20T04:08:40.597Z,10.15
2023-05-20T04:09:40.337Z,10.16
2023-05-20T04:10:40.315Z,10.22
2023-05-20T04:11:39.750Z,10.23
2023-05-20T04:12:40.356Z,10.23
2023-05-20T04:13:39.812Z,10.21
2023-05-20T04:14:40.522Z,10.19
2023-05-20T04:15:40.441Z,10.20
2023-05-20T04:16:40.164Z,10.21
2023-05-20T04:17:39.986Z,10.16
2023-05-20T04:18:40.018Z,10.08
2023-05-20T04:19:40.147Z,10.09
2023-05-20T04:20:40.367Z,10.06
2023-05-20T04:21:39.774Z,10.04
2023-05-20T04:22:40.260Z,10.02
2023-05-20T04:23:40.019Z,10.04
2023-05-20T04:24:39.698Z,10.07
2023-05-20T04:25:40.787Z,10.11
2023-05-20T04:26:40.409Z,10.10
2023-05-20T04:27:40.058Z,10.06
2023-05-20T04:28:39.955Z,10.08
2023-05-20T04:29:40.292Z,10.09
2023-05-20T04:30:40.103Z,10.11
2023-05-20T04:31:39.792Z,10.13
2023-05-20T04:32:40.619Z,10.14
2023-05-20T04:33:39.986Z,10.11
2023-05-20T04:34:40.042Z,10.08
2023-05-20T04:35:39.907Z,10.08
2023-05-20T04:36:40.479Z,10.15
2023-05-20T04:37:39.959Z,10.18
2023-05-20T04:38:39.792Z,10.18
2023-05-20T04:39:40.464Z,10.21
2023-05-20T04:40:40.314Z,10.24
2023-05-20T04:41:40.378Z,10.26
2023-05-20T04:42:40.136Z,10.27
2023-05-20T04:43:39.924Z,10.26
2023-05-20T04:44:41.757Z,10.24
2023-05-20T04:45:40.111Z,10.26
2023-05-20T04:46:39.915Z,10.24
2023-05-20T04:47:41.033Z,10.25
2023-05-20T04:48:40.250Z,10.25
2023-05-20T04:49:39.880Z,10.27
2023-05-20T04:50:40.798Z,10.25
2023-05-20T04:51:40.311Z,10.29
2023-05-20T04:52:40.167Z,10.29
2023-05-20T04:53:39.924Z,10.29
2023-05-20T04:54:40.767Z,10.32
2023-05-20T04:55:41.031Z,10.31
2023-05-20T04:56:39.910Z,10.33
2023-05-20T04:57:40.661Z,10.37
2023-05-20T04:58:40.101Z,10.40
2023-05-20T04:59:39.959Z,10.43
2023-05-20T05:00:41.521Z,10.48
2023-05-20T05:01:40.536Z,10.51
2023-05-20T05:02:40.221Z,10.49
2023-05-20T05:03:40.155Z,10.51
2023-05-20T05:04:40.160Z,10.5
2023-05-20T05:05:40.397Z,10.50
2023-05-20T05:06:40.127Z,10.53
2023-05-20T05:07:39.837Z,10.55
2023-05-20T05:08:40.201Z,10.56
2023-05-20T05:09:40.250Z,10.55
2023-05-20T05:10:40.249Z,10.57
2023-05-20T05:11:39.769Z,10.55
2023-05-20T05:12:40.923Z,10.58
2023-05-20T05:13:41.045Z,10.61
2023-05-20T05:14:40.167Z,10.61
2023-05-20T05:15:40.240Z,10.61
2023-05-20T05:16:40.543Z,10.63
2023-05-20T05:17:40.690Z,10.66
2023-05-20T05:18:40.558Z,10.68
2023-05-20T05:19:40.697Z,10.70
2023-05-20T05:20:40.754Z,10.72
2023-05-20T05:21:40.874Z,10.76
2023-05-20T05:22:45.520Z,10.76
2023-05-20T05:23:40.091Z,10.78
2023-05-20T05:24:40.335Z,10.80
2023-05-20T05:25:40.175Z,10.82
2023-05-20T05:26:40.061Z,10.85
2023-05-20T05:27:39.975Z,10.86
2023-05-20T05:28:40.712Z,10.87
2023-05-20T05:29:40.847Z,10.91
2023-05-20T05:30:41.128Z,10.91
2023-05-20T05:31:40.041Z,10.93
2023-05-20T05:32:40.491Z,10.96
2023-05-20T05:33:40.639Z,10.96
2023-05-20T05:34:40.126Z,10.98
2023-05-20T05:35:39.941Z,10.99
2023-05-20T05:36:40.872Z,11.00
2023-05-20T05:37:40.533Z,11.01
2023-05-20T05:38:40.406Z,11.03
2023-05-20T05:39:40.383Z,11.05
2023-05-20T05:40:40.404Z,11.08
2023-05-20T05:41:40.584Z,11.09
2023-05-20T05:42:40.285Z,11.13
2023-05-20T05:43:40.438Z,11.15
2023-05-20T05:44:54.675Z,11.14
2023-05-20T05:45:40.729Z,11.13
2023-05-20T05:46:40.883Z,11.15
2023-05-20T05:47:41.005Z,11.18
2023-05-20T05:48:40.267Z,11.18
2023-05-20T05:49:39.893Z,11.20
2023-05-20T05:50:40.834Z,11.23
2023-05-20T05:51:40.636Z,11.25
2023-05-20T05:52:40.130Z,11.26
2023-05-20T05:53:40.102Z,11.27
2023-05-20T05:54:40.304Z,11.29
2023-05-20T05:55:40.572Z,11.30
2023-05-20T05:56:40.607Z,11.32
2023-05-20T05:57:40.648Z,11.33
2023-05-20T05:58:40.883Z,11.33
2023-05-20T05:59:40.445Z,11.35
2023-05-20T06:01:00.217Z,11.38
2023-05-20T06:01:39.818Z,11.40
2023-05-20T06:02:41.219Z,11.42
2023-05-20T06:03:40.578Z,11.43
2023-05-20T06:04:40.667Z,11.43
2023-05-20T06:05:44.060Z,11.46
2023-05-20T06:06:40.045Z,11.47
2023-05-20T06:07:40.006Z,11.51
2023-05-20T06:08:40.373Z,11.53
2023-05-20T06:09:40.031Z,11.56
2023-05-20T06:10:40.266Z,11.59
2023-05-20T06:11:40.153Z,11.64
2023-05-20T06:12:40.065Z,11.67
2023-05-20T06:13:40.172Z,11.68
2023-05-20T06:14:40.372Z,11.71
2023-05-20T06:15:40.581Z,11.74
2023-05-20T06:16:40.656Z,11.74
2023-05-20T06:17:40.592Z,11.76
2023-05-20T06:18:40.265Z,11.80
2023-05-20T06:19:40.701Z,11.87
2023-05-20T06:20:40.624Z,11.89
2023-05-20T06:21:40.791Z,11.92
2023-05-20T06:22:40.625Z,11.95
2023-05-20T06:23:40.187Z,11.99
2023-05-20T06:24:41.272Z,12.02
2023-05-20T06:25:41.006Z,12.02
2023-05-20T06:26:40.838Z,12.06
2023-05-20T06:27:41.229Z,12.08
2023-05-20T06:28:40.874Z,12.09
2023-05-20T06:29:42.451Z,12.11
2023-05-20T06:30:40.671Z,12.13
2023-05-20T06:31:40.552Z,12.13
2023-05-20T06:32:40.589Z,12.19
2023-05-20T06:33:40.627Z,12.22
2023-05-20T06:34:40.123Z,12.24
2023-05-20T06:35:40.181Z,12.24
2023-05-20T06:36:40.441Z,12.26
2023-05-20T06:37:40.336Z,12.28
2023-05-20T06:38:40.189Z,12.28
2023-05-20T06:39:39.948Z,12.29
2023-05-20T06:40:41.007Z,12.32
2023-05-20T06:41:39.982Z,12.36
2023-05-20T06:42:40.023Z,12.38
2023-05-20T06:43:40.090Z,12.42
2023-05-20T06:44:40.028Z,12.45
2023-05-20T06:45:40.105Z,12.43
2023-05-20T06:46:40.141Z,12.41
2023-05-20T06:47:40.385Z,12.40
2023-05-20T06:48:40.085Z,12.42
2023-05-20T06:49:40.265Z,12.42
2023-05-20T06:50:40.059Z,12.45
2023-05-20T06:51:40.170Z,12.46
2023-05-20T06:52:39.907Z,12.5
2023-05-20T06:53:40.510Z,12.55
2023-05-20T06:54:40.153Z,12.52
2023-05-20T06:55:40.299Z,12.51
2023-05-20T06:56:40.545Z,12.55
2023-05-20T06:57:40.362Z,12.54
2023-05-20T06:58:40.770Z,12.55
2023-05-20T06:59:40.975Z,12.58
2023-05-20T07:00:41.991Z,12.60
2023-05-20T07:01:40.611Z,12.62
2023-05-20T07:02:40.698Z,12.63
2023-05-20T07:03:40.749Z,12.64
2023-05-20T07:04:40.668Z,12.67
2023-05-20T07:05:40.924Z,12.68
2023-05-20T07:06:40.855Z,12.68
2023-05-20T07:07:45.707Z,12.74
2023-05-20T07:08:40.943Z,12.76
2023-05-20T07:09:45.997Z,12.82
2023-05-20T07:10:40.430Z,12.89
2023-05-20T07:11:45.430Z,12.97
2023-05-20T07:12:40.160Z,13.05
2023-05-20T07:13:39.932Z,13.13
2023-05-20T07:14:40.734Z,13.18
2023-05-20T07:15:46.023Z,13.19
2023-05-20T07:16:40.513Z,13.19
2023-05-20T07:17:40.568Z,13.22
2023-05-20T07:18:40.557Z,13.24
2023-05-20T07:19:40.289Z,13.27
2023-05-20T07:20:40.228Z,13.27
2023-05-20T07:21:48.113Z,13.28
2023-05-20T07:22:40.056Z,13.34
2023-05-20T07:23:39.777Z,13.37
2023-05-20T07:24:40.486Z,13.37
2023-05-20T07:25:48.611Z,13.38
2023-05-20T07:26:40.276Z,13.39
2023-05-20T07:27:39.970Z,13.43
2023-05-20T07:28:41.212Z,13.45
2023-05-20T07:29:40.083Z,13.49
2023-05-20T07:30:41.003Z,13.52
2023-05-20T07:31:40.373Z,13.55
2023-05-20T07:32:40.625Z,13.54
2023-05-20T07:33:40.467Z,13.55
2023-05-20T07:34:41.048Z,13.57
2023-05-20T07:35:40.313Z,13.60
2023-05-20T07:36:39.879Z,13.66
2023-05-20T07:37:40.494Z,13.67
2023-05-20T07:38:41.282Z,13.68
2023-05-20T07:39:40.126Z,13.70
2023-05-20T07:40:40.336Z,13.68
2023-05-20T07:41:40.165Z,13.66
2023-05-20T07:42:39.905Z,13.67
2023-05-20T07:43:40.574Z,13.68
2023-05-20T07:44:40.476Z,13.72
2023-05-20T07:45:40.919Z,13.74
2023-05-20T07:46:40.794Z,13.74
2023-05-20T07:47:41.029Z,13.77
2023-05-20T07:48:40.189Z,13.84
2023-05-20T07:49:40.245Z,13.80
2023-05-20T07:50:40.603Z,13.77
2023-05-20T07:51:40.560Z,13.81
2023-05-20T07:52:55.179Z,13.82
2023-05-20T07:54:00.204Z,13.84
2023-05-20T07:54:40.028Z,13.88
2023-05-20T07:56:02.479Z,13.97
2023-05-20T07:56:40.778Z,13.99
2023-05-20T07:58:03.332Z,14
2023-05-20T07:58:41.072Z,14.00
2023-05-20T07:59:40.138Z,13.97
2023-05-20T08:00:41.004Z,13.97
2023-05-20T08:01:40.026Z,14.02
2023-05-20T08:02:40.296Z,14.06
2023-05-20T08:03:40.351Z,14.09
2023-05-20T08:04:40.298Z,14.13
2023-05-20T08:05:40.167Z,14.17
2023-05-20T08:06:40.032Z,14.23
2023-05-20T08:07:40.078Z,14.25
2023-05-20T08:08:40.058Z,14.27
2023-05-20T08:09:40.110Z,14.29
2023-05-20T08:10:40.593Z,14.34
2023-05-20T08:11:40.342Z,14.37
2023-05-20T08:12:40.694Z,14.41
2023-05-20T08:13:40.342Z,14.45
2023-05-20T08:14:40.410Z,14.48
2023-05-20T08:15:40.571Z,14.52
2023-05-20T08:16:40.531Z,14.51
2023-05-20T08:17:40.330Z,14.50
2023-05-20T08:18:40.082Z,14.52
2023-05-20T08:19:40.361Z,14.55
2023-05-20T08:20:40.299Z,14.56
2023-05-20T08:21:40.251Z,14.59
2023-05-20T08:22:40.204Z,14.64
2023-05-20T08:23:40.639Z,14.70
2023-05-20T08:24:40.772Z,14.72
2023-05-20T08:25:59.713Z,14.73
2023-05-20T08:26:40.856Z,14.77
2023-05-20T08:27:40.735Z,14.78
2023-05-20T08:28:40.801Z,14.84
2023-05-20T08:30:12.438Z,14.88
2023-05-20T08:30:45.985Z,14.95
2023-05-20T08:31:39.975Z,14.97
2023-05-20T08:32:40.213Z,14.95
2023-05-20T08:33:40.300Z,14.95
2023-05-20T08:34:40.479Z,14.98
2023-05-20T08:35:40.855Z,15.02
2023-05-20T08:36:40.935Z,15.07
2023-05-20T08:38:13.188Z,15.18
2023-05-20T08:38:46.401Z,15.25
2023-05-20T08:39:40.389Z,15.29
2023-05-20T08:40:40.468Z,15.34
2023-05-20T08:41:40.545Z,15.38
2023-05-20T08:42:40.376Z,15.36
2023-05-20T08:43:40.332Z,15.40
2023-05-20T08:44:40.263Z,15.42
2023-05-20T08:45:40.551Z,15.47
2023-05-20T08:46:41.181Z,15.49
2023-05-20T08:47:40.768Z,15.52
2023-05-20T08:48:40.673Z,15.54
2023-05-20T08:49:40.661Z,15.56
2023-05-20T08:50:40.971Z,15.59
2023-05-20T08:51:40.429Z,15.61
2023-05-20T08:52:40.812Z,15.63
2023-05-20T08:53:40.786Z,15.64
2023-05-20T08:54:41.447Z,15.68
2023-05-20T08:55:41.177Z,15.75
2023-05-20T08:56:40.573Z,15.79
2023-05-20T08:57:41.026Z,15.85
2023-05-20T08:58:40.239Z,15.94
2023-05-20T08:59:40.485Z,15.97
2023-05-20T09:00:42.039Z,15.98
2023-05-20T09:01:40.517Z,15.97
2023-05-20T09:02:40.472Z,15.92
2023-05-20T09:03:40.519Z,15.88
2023-05-20T09:04:40.358Z,15.90
2023-05-20T09:05:40.538Z,15.95
2023-05-20T09:06:40.369Z,15.98
2023-05-20T09:07:40.188Z,16.01
2023-05-20T09:08:40.249Z,16.03
2023-05-20T09:09:40.315Z,16.04
2023-05-20T09:10:40.297Z,16.09
2023-05-20T09:11:40.593Z,16.10
2023-05-20T09:12:40.569Z,16.12
2023-05-20T09:13:40.647Z,16.13
2023-05-20T09:14:40.348Z,16.18
2023-05-20T09:15:40.545Z,16.21
2023-05-20T09:16:41.117Z,16.23
2023-05-20T09:17:40.313Z,16.28
2023-05-20T09:18:40.517Z,16.29
2023-05-20T09:19:40.818Z,16.27
2023-05-20T09:20:40.882Z,16.29
2023-05-20T09:21:40.900Z,16.28
2023-05-20T09:22:40.808Z,16.29
2023-05-20T09:23:40.882Z,16.41
2023-05-20T09:24:40.943Z,16.41
2023-05-20T09:25:41.336Z,16.36
2023-05-20T09:26:40.286Z,16.38
2023-05-20T09:27:40.550Z,16.44
2023-05-20T09:28:41.096Z,16.49
2023-05-20T09:29:40.448Z,16.55
2023-05-20T09:30:40.783Z,16.59
2023-05-20T09:31:40.789Z,16.55
2023-05-20T09:32:40.870Z,16.57
2023-05-20T09:33:40.820Z,16.54
2023-05-20T09:34:41.032Z,16.54
2023-05-20T09:35:40.720Z,16.54
2023-05-20T09:36:40.587Z,16.50
2023-05-20T09:37:40.805Z,16.49
2023-05-20T09:38:41.083Z,16.56
2023-05-20T09:39:40.727Z,16.63
2023-05-20T09:40:40.877Z,16.74
2023-05-20T09:41:41.066Z,16.88
2023-05-20T09:42:40.368Z,16.94
2023-05-20T09:43:40.554Z,16.92
2023-05-20T09:44:40.707Z,16.97
2023-05-20T09:45:41.227Z,17.04
2023-05-20T09:46:40.782Z,17.08
2023-05-20T09:47:41.351Z,17.15
2023-05-20T09:48:41.536Z,17.16
2023-05-20T09:49:40.680Z,17.09
2023-05-20T09:50:40.839Z,17.10
2023-05-20T09:51:40.965Z,17.15
2023-05-20T09:52:41.004Z,17.19
2023-05-20T09:53:40.494Z,17.15
2023-05-20T09:54:40.762Z,17.17
2023-05-20T09:55:40.913Z,17.21
2023-05-20T09:56:41.162Z,17.26
2023-05-20T09:57:41.153Z,17.31
2023-05-20T09:58:40.349Z,17.40
2023-05-20T09:59:40.437Z,17.40
2023-05-20T10:00:41.566Z,17.34
2023-05-20T10:01:40.765Z,17.27
2023-05-20T10:02:41.051Z,17.29
2023-05-20T10:03:41.910Z,17.25
2023-05-20T10:04:40.536Z,17.18
2023-05-20T10:05:40.729Z,17.18
2023-05-20T10:06:40.780Z,17.19
2023-05-20T10:07:57.556Z,17.19
2023-05-20T10:08:40.823Z,17.27
2023-05-20T10:09:41.290Z,17.36
2023-05-20T10:10:45.703Z,17.35
2023-05-20T10:11:41.279Z,17.34
2023-05-20T10:12:40.649Z,17.35
2023-05-20T10:13:41.113Z,17.33
2023-05-20T10:14:45.886Z,17.33
2023-05-20T10:15:41.432Z,17.31
2023-05-20T10:16:45.942Z,17.41
2023-05-20T10:17:41.467Z,17.47
2023-05-20T10:18:41.142Z,17.51
2023-05-20T10:19:40.732Z,17.48
2023-05-20T10:20:40.658Z,17.51
2023-05-20T10:21:40.701Z,17.52
2023-05-20T10:22:41.750Z,17.55
2023-05-20T10:23:41.908Z,17.56
2023-05-20T10:24:41.856Z,17.60
2023-05-20T10:25:41.735Z,17.56
2023-05-20T10:26:41.072Z,17.54
2023-05-20T10:27:40.459Z,17.52
2023-05-20T10:28:40.585Z,17.53
2023-05-20T10:29:40.438Z,17.54
2023-05-20T10:30:42.533Z,17.49
2023-05-20T10:31:40.688Z,17.48
2023-05-20T10:32:54.898Z,17.47
2023-05-20T10:33:40.348Z,17.50
2023-05-20T10:34:40.506Z,17.51
2023-05-20T10:35:40.585Z,17.5
2023-05-20T10:37:12.426Z,17.5
2023-05-20T10:37:45.408Z,17.53
2023-05-20T10:38:40.616Z,17.54
2023-05-20T10:39:40.715Z,17.54
2023-05-20T10:41:12.866Z,17.53
2023-05-20T10:41:46.015Z,17.49
2023-05-20T10:42:40.193Z,17.55
2023-05-20T10:43:40.346Z,17.60
2023-05-20T10:44:40.447Z,17.64
2023-05-20T10:45:40.755Z,17.64
2023-05-20T10:47:20.582Z,17.69
2023-05-20T10:47:42.650Z,17.65
2023-05-20T10:48:41.728Z,17.63
2023-05-20T10:49:43.669Z,17.68
2023-05-20T10:50:40.888Z,17.76
2023-05-20T10:51:40.878Z,17.77
2023-05-20T10:52:41.136Z,17.86
2023-05-20T10:53:50.204Z,17.94
2023-05-20T10:54:40.545Z,17.94
2023-05-20T10:55:40.929Z,18
2023-05-20T10:56:41.160Z,18.04
2023-05-20T10:57:40.544Z,18.03
2023-05-20T10:58:40.974Z,18.00
2023-05-20T10:59:41.578Z,18.02
2023-05-20T11:00:41.814Z,18.06
2023-05-20T11:01:41.126Z,18.08
2023-05-20T11:02:40.624Z,18.09
2023-05-20T11:03:40.882Z,18.13
2023-05-20T11:04:41.016Z,18.18
2023-05-20T11:05:40.119Z,18.21
2023-05-20T11:06:40.417Z,18.21
2023-05-20T11:07:40.499Z,18.23
2023-05-20T11:08:45.408Z,18.25
2023-05-20T11:09:40.286Z,18.25
2023-05-20T11:10:40.837Z,18.24
2023-05-20T11:11:40.751Z,18.22
2023-05-20T11:12:40.577Z,18.19
2023-05-20T11:13:40.411Z,18.17
2023-05-20T11:14:40.539Z,18.20
2023-05-20T11:15:40.554Z,18.23
2023-05-20T11:16:40.814Z,18.25
2023-05-20T11:17:40.747Z,18.24
2023-05-20T11:18:41.014Z,18.23
2023-05-20T11:19:40.426Z,18.29
2023-05-20T11:20:40.656Z,18.31
2023-05-20T11:21:40.746Z,18.34
2023-05-20T11:22:40.702Z,18.33
2023-05-20T11:23:40.814Z,18.26
2023-05-20T11:24:40.874Z,18.28
2023-05-20T11:25:41.205Z,18.26
2023-05-20T11:27:17.196Z,18.26
2023-05-20T11:27:45.613Z,18.34
2023-05-20T11:28:40.645Z,18.36
2023-05-20T11:29:41.127Z,18.31
2023-05-20T11:31:40.598Z,18.33
2023-05-20T11:32:40.968Z,18.32
2023-05-20T11:33:40.410Z,18.35
2023-05-20T11:34:42.895Z,18.35
2023-05-20T11:35:41.023Z,18.35
2023-05-20T11:36:44.589Z,18.35
2023-05-20T11:37:41.063Z,18.39
2023-05-20T11:38:40.376Z,18.47
2023-05-20T11:39:40.519Z,18.56
2023-05-20T11:40:50.516Z,18.63
2023-05-20T11:41:40.829Z,18.68
2023-05-20T11:42:40.914Z,18.72
2023-05-20T11:43:41.034Z,18.76
2023-05-20T11:44:40.223Z,18.76
2023-05-20T11:45:40.552Z,18.71
2023-05-20T11:46:40.516Z,18.62
2023-05-20T11:47:40.596Z,18.53
2023-05-20T11:48:40.611Z,18.52
2023-05-20T11:49:40.661Z,18.54
2023-05-20T11:50:40.831Z,18.54
2023-05-20T11:51:40.941Z,18.56
2023-05-20T11:52:40.364Z,18.54
2023-05-20T11:53:40.280Z,18.50
2023-05-20T11:54:40.753Z,18.51
2023-05-20T11:55:41.045Z,18.55
2023-05-20T11:56:40.642Z,18.58
2023-05-20T11:57:40.829Z,18.63
2023-05-20T11:58:40.640Z,18.61
2023-05-20T11:59:45.765Z,18.60
2023-05-20T12:00:52.832Z,18.62
2023-05-20T12:01:40.487Z,18.69
2023-05-20T12:02:40.864Z,18.74
2023-05-20T12:03:41.633Z,18.82
2023-05-20T12:04:41.377Z,18.85
2023-05-20T12:05:40.675Z,18.87
2023-05-20T12:06:41.074Z,18.91
2023-05-20T12:07:40.034Z,18.96
2023-05-20T12:08:40.605Z,18.96
2023-05-20T12:09:40.922Z,18.93
2023-05-20T12:10:40.900Z,18.94
2023-05-20T12:11:41.164Z,18.95
2023-05-20T12:12:40.484Z,19
2023-05-20T12:13:51.499Z,18.94
2023-05-20T12:14:40.963Z,18.86
2023-05-20T12:15:40.680Z,18.92
2023-05-20T12:16:41.174Z,18.99
2023-05-20T12:17:40.658Z,19.04
2023-05-20T12:18:40.937Z,19.00
2023-05-20T12:19:57.886Z,19.00
2023-05-20T12:20:41.061Z,19.00
2023-05-20T12:21:54.514Z,19.03
2023-05-20T12:22:40.348Z,19.12
2023-05-20T12:23:40.830Z,19.19
2023-05-20T12:24:41.016Z,19.20
2023-05-20T12:25:40.136Z,19.17
2023-05-20T12:26:40.381Z,19.19
2023-05-20T12:27:40.535Z,19.24
2023-05-20T12:28:40.585Z,19.29
2023-05-20T12:29:40.623Z,19.30
2023-05-20T12:30:40.921Z,19.25
2023-05-20T12:31:41.122Z,19.11
2023-05-20T12:32:40.198Z,19.11
2023-05-20T12:33:40.657Z,19.13
2023-05-20T12:34:40.780Z,19.16
2023-05-20T12:35:41.131Z,19.18
2023-05-20T12:36:40.135Z,19.21
2023-05-20T12:37:40.566Z,19.26
2023-05-20T12:38:40.539Z,19.28
2023-05-20T12:39:40.455Z,19.31
2023-05-20T12:40:40.332Z,19.38
2023-05-20T12:41:45.557Z,19.40
2023-05-20T12:42:40.484Z,19.37
2023-05-20T12:43:40.801Z,19.29
2023-05-20T12:44:41.103Z,19.24
2023-05-20T12:45:40.706Z,19.20
2023-05-20T12:46:40.772Z,19.19
2023-05-20T12:47:40.974Z,19.17
2023-05-20T12:48:42.553Z,19.15
2023-05-20T12:49:40.598Z,19.10
2023-05-20T12:50:41.013Z,19.05
2023-05-20T12:51:40.481Z,19.06
2023-05-20T12:52:40.452Z,19.06
2023-05-20T12:53:40.708Z,19.06
2023-05-20T12:54:41.189Z,19.07